Time;durP1;ratioP1;P1;durP2;ratioP2;P2;SDS_P1;SDS_P2;PMS_P1;PMS_P2;Temp;Humidity;BMP_temperature;BMP_pressure;BME280_temperature;BME280_humidity;BME280_pressure;Samples;Min_cycle;Max_cycle;Signal;HPM_P1;HPM_P2
2021/05/31 00:02:27;;;;;;;2.67;2.17;;;20.90;50.20;;;;;;5040834;28;20063;-59
2021/05/31 00:04:54;;;;;;;2.40;2.20;;;20.90;50.20;;;;;;5054188;28;20076;-58
2021/05/31 00:07:22;;;;;;;2.20;1.98;;;20.90;50.20;;;;;;5055596;28;20049;-58
2021/05/31 00:09:55;;;;;;;2.15;1.90;;;20.90;50.20;;;;;;5069182;28;20045;-58
2021/05/31 00:12:23;;;;;;;2.47;1.90;;;20.90;50.20;;;;;;5054091;28;20041;-57
2021/05/31 00:14:51;;;;;;;2.90;2.00;;;20.90;50.20;;;;;;5051817;28;20059;-58
2021/05/31 00:17:18;;;;;;;2.47;1.85;;;20.90;50.20;;;;;;5038174;28;20040;-58
2021/05/31 00:19:49;;;;;;;3.72;2.13;;;20.90;50.20;;;;;;5052921;28;20095;-58
2021/05/31 00:22:18;;;;;;;3.05;2.10;;;20.90;50.20;;;;;;5037063;28;20098;-58
2021/05/31 00:24:48;;;;;;;2.95;1.88;;;20.90;50.20;;;;;;5035034;28;20049;-58
2021/05/31 00:27:15;;;;;;;2.58;2.10;;;20.80;50.10;;;;;;5053851;28;20455;-58
2021/05/31 00:29:44;;;;;;;2.38;2.05;;;20.90;50.20;;;;;;5053328;28;20049;-59
2021/05/31 00:32:12;;;;;;;3.30;2.00;;;20.80;50.10;;;;;;5034912;28;20049;-58
2021/05/31 00:34:39;;;;;;;2.45;2.03;;;20.90;50.20;;;;;;5053559;28;20496;-58
2021/05/31 00:37:06;;;;;;;3.13;2.30;;;20.80;50.10;;;;;;5038292;28;20041;-58
2021/05/31 00:39:34;;;;;;;2.67;2.17;;;20.80;50.10;;;;;;5051940;28;20049;-58
2021/05/31 00:42:01;;;;;;;2.53;2.20;;;20.80;50.10;;;;;;5053303;28;20459;-57
2021/05/31 00:44:28;;;;;;;2.58;2.28;;;20.90;50.20;;;;;;5054175;28;20049;-58
2021/05/31 00:46:56;;;;;;;3.08;2.10;;;20.90;50.20;;;;;;5041631;28;20046;-58
2021/05/31 00:49:27;;;;;;;2.42;2.10;;;20.80;50.10;;;;;;5048475;28;20451;-58
2021/05/31 00:51:55;;;;;;;2.28;2.03;;;20.80;50.10;;;;;;5043775;28;20608;-58
2021/05/31 00:54:23;;;;;;;3.45;1.95;;;20.80;50.10;;;;;;5047074;28;20045;-58
2021/05/31 00:56:51;;;;;;;2.70;2.15;;;20.80;50.20;;;;;;5062048;28;20068;-58
2021/05/31 00:59:18;;;;;;;3.58;2.03;;;20.80;50.10;;;;;;5060695;28;20045;-58
2021/05/31 01:01:47;;;;;;;2.40;2.10;;;20.80;50.10;;;;;;5053126;28;20052;-57
2021/05/31 01:04:16;;;;;;;3.25;2.25;;;20.80;50.10;;;;;;5045905;28;20061;-56
2021/05/31 01:06:59;;;;;;;3.50;2.15;;;20.90;50.20;;;;;;5042741;28;20049;-58
2021/05/31 01:09:45;;;;;;;3.03;2.10;;;20.80;50.10;;;;;;5053068;28;20514;-58
2021/05/31 01:12:26;;;;;;;2.33;2.00;;;20.80;50.10;;;;;;5052899;28;20107;-58
2021/05/31 01:15:08;;;;;;;3.95;2.10;;;20.80;50.10;;;;;;5067032;28;20041;-58
2021/05/31 01:17:53;;;;;;;3.00;2.13;;;20.80;50.10;;;;;;5041602;28;20186;-58
2021/05/31 01:20:42;;;;;;;2.88;2.00;;;20.80;50.10;;;;;;5063470;28;20459;-59
2021/05/31 01:23:12;;;;;;;2.17;1.98;;;20.80;50.10;;;;;;5039938;28;20099;-58
2021/05/31 01:25:53;;;;;;;2.65;2.13;;;20.80;50.10;;;;;;5036077;28;20053;-59
2021/05/31 01:28:45;;;;;;;2.35;2.15;;;20.80;50.10;;;;;;5051417;28;20397;-58
2021/05/31 01:31:15;;;;;;;2.15;1.88;;;20.80;50.10;;;;;;5035142;28;20085;-58
2021/05/31 01:33:46;;;;;;;2.42;2.05;;;20.80;50.10;;;;;;5053515;28;20067;-58
2021/05/31 01:36:14;;;;;;;2.70;2.10;;;20.80;50.10;;;;;;5052595;28;20067;-58
2021/05/31 01:38:42;;;;;;;2.33;2.10;;;20.80;50.10;;;;;;5051385;28;20119;-58
2021/05/31 01:41:11;;;;;;;2.22;2.00;;;20.80;50.10;;;;;;5052369;28;20122;-55
2021/05/31 01:43:39;;;;;;;2.78;1.98;;;20.80;50.10;;;;;;5038149;28;20129;-58
2021/05/31 01:46:07;;;;;;;2.60;2.10;;;20.80;50.10;;;;;;5050783;28;20107;-58
2021/05/31 01:48:35;;;;;;;2.30;1.77;;;20.80;50.10;;;;;;5039536;28;20049;-58
2021/05/31 01:51:03;;;;;;;3.95;2.00;;;20.80;50.00;;;;;;5049078;28;20044;-57
2021/05/31 01:53:31;;;;;;;4.53;2.28;;;20.80;50.10;;;;;;5041803;28;20065;-58
2021/05/31 01:55:58;;;;;;;2.60;1.98;;;20.80;50.10;;;;;;5045835;28;20041;-57
2021/05/31 01:58:26;;;;;;;2.38;2.10;;;20.80;50.10;;;;;;5050755;28;20489;-58
2021/05/31 02:00:54;;;;;;;3.00;1.90;;;20.80;50.00;;;;;;5052229;28;20049;-58
2021/05/31 02:03:22;;;;;;;2.00;1.73;;;20.80;50.00;;;;;;5053157;28;20057;-58
2021/05/31 02:05:49;;;;;;;2.95;2.13;;;20.80;50.00;;;;;;5051628;28;20045;-58
2021/05/31 02:08:16;;;;;;;4.40;1.90;;;20.80;50.00;;;;;;5050941;28;20122;-58
2021/05/31 02:10:47;;;;;;;2.00;1.80;;;20.70;49.90;;;;;;5050747;28;20056;-58
2021/05/31 02:13:15;;;;;;;2.40;2.08;;;20.80;50.00;;;;;;5051010;28;20045;-57
2021/05/31 02:16:01;;;;;;;3.42;2.17;;;20.70;49.90;;;;;;5048289;28;20042;-57
2021/05/31 02:18:41;;;;;;;2.38;1.95;;;20.70;49.90;;;;;;5041411;28;20045;-57
2021/05/31 02:21:09;;;;;;;2.25;1.90;;;20.70;49.90;;;;;;5048506;28;20119;-58
2021/05/31 02:23:39;;;;;;;3.60;2.63;;;20.80;50.00;;;;;;5044937;28;20094;-57
2021/05/31 02:26:15;;;;;;;2.85;2.28;;;20.70;49.90;;;;;;5051288;28;20115;-57
2021/05/31 02:28:45;;;;;;;2.15;1.95;;;20.70;49.90;;;;;;5058448;28;20041;-58
2021/05/31 02:31:15;;;;;;;2.15;1.95;;;20.80;50.00;;;;;;5057149;28;20102;-57
2021/05/31 02:33:47;;;;;;;2.35;2.05;;;20.70;49.90;;;;;;5056595;28;20041;-54
2021/05/31 02:36:16;;;;;;;2.53;2.08;;;20.70;49.90;;;;;;5057030;28;20385;-57
2021/05/31 02:38:44;;;;;;;3.33;1.98;;;20.70;50.50;;;;;;5054308;28;20044;-57
2021/05/31 02:41:12;;;;;;;5.72;1.90;;;20.70;49.90;;;;;;5055417;28;20088;-58
2021/05/31 02:43:39;;;;;;;2.30;2.08;;;20.70;49.90;;;;;;5054708;28;20099;-56
2021/05/31 02:46:06;;;;;;;2.30;2.03;;;20.70;49.90;;;;;;5056135;28;20554;-57
2021/05/31 02:48:34;;;;;;;1.98;1.73;;;20.70;49.90;;;;;;5038514;28;20754;-58
2021/05/31 02:51:02;;;;;;;3.08;1.98;;;20.70;49.90;;;;;;5055769;28;20132;-58
2021/05/31 02:53:31;;;;;;;2.45;2.10;;;20.70;49.90;;;;;;5054242;28;20114;-58
2021/05/31 02:55:59;;;;;;;2.75;1.90;;;20.70;49.80;;;;;;5055103;28;20106;-58
2021/05/31 02:58:26;;;;;;;2.42;2.20;;;20.70;49.90;;;;;;5037814;28;20052;-55
2021/05/31 03:00:54;;;;;;;2.35;2.03;;;20.70;49.80;;;;;;5053247;28;20053;-59
2021/05/31 03:03:21;;;;;;;2.58;1.67;;;20.70;49.80;;;;;;5055409;28;20075;-58
2021/05/31 03:05:49;;;;;;;2.67;2.00;;;20.70;49.80;;;;;;5051577;28;20053;-59
2021/05/31 03:08:16;;;;;;;2.15;1.75;;;20.70;49.80;;;;;;5051407;28;20056;-58
2021/05/31 03:10:43;;;;;;;2.92;1.90;;;20.70;49.80;;;;;;5056333;28;20492;-57
2021/05/31 03:13:11;;;;;;;2.95;2.00;;;20.70;49.80;;;;;;5042844;28;20046;-58
2021/05/31 03:15:38;;;;;;;3.50;1.80;;;20.70;49.80;;;;;;5038440;28;20465;-58
2021/05/31 03:18:07;;;;;;;3.40;1.85;;;20.70;49.80;;;;;;5038725;28;20072;-58
2021/05/31 03:20:34;;;;;;;2.67;1.83;;;20.70;49.70;;;;;;5049303;28;20048;-56
2021/05/31 03:23:02;;;;;;;3.22;1.90;;;20.70;49.70;;;;;;5054895;28;20077;-58
2021/05/31 03:25:29;;;;;;;3.28;1.98;;;20.70;49.70;;;;;;5054638;28;20045;-58
2021/05/31 03:27:58;;;;;;;2.35;1.80;;;20.70;49.70;;;;;;5049276;28;20103;-57
2021/05/31 03:30:26;;;;;;;2.47;2.25;;;20.70;49.70;;;;;;5054915;28;20408;-58
2021/05/31 03:32:56;;;;;;;3.17;2.30;;;20.70;49.90;;;;;;5038767;28;20127;-58
2021/05/31 03:35:23;;;;;;;4.07;2.00;;;20.70;49.70;;;;;;5042878;28;20044;-58
2021/05/31 03:37:51;;;;;;;3.60;1.85;;;20.70;49.60;;;;;;5055831;28;20047;-58
2021/05/31 03:40:22;;;;;;;4.75;2.13;;;20.70;49.60;;;;;;5055825;28;20395;-58
2021/05/31 03:42:55;;;;;;;2.20;1.92;;;20.70;49.60;;;;;;5056072;28;20454;-57
2021/05/31 03:45:22;;;;;;;2.58;2.15;;;20.70;49.60;;;;;;5069907;28;20452;-58
2021/05/31 03:47:51;;;;;;;2.53;1.92;;;20.70;49.50;;;;;;5054497;28;20041;-58
2021/05/31 03:50:19;;;;;;;2.50;1.80;;;20.70;49.50;;;;;;5053781;28;20520;-58
2021/05/31 03:52:48;;;;;;;2.10;1.90;;;20.70;49.50;;;;;;5037417;28;20106;-58
2021/05/31 03:55:16;;;;;;;2.17;1.85;;;20.70;49.50;;;;;;5054269;28;20095;-56
2021/05/31 03:57:44;;;;;;;2.40;1.90;;;20.70;49.50;;;;;;5053945;28;20068;-58
2021/05/31 04:00:14;;;;;;;2.10;1.73;;;20.80;49.50;;;;;;5053033;28;20099;-58
2021/05/31 04:02:42;;;;;;;2.65;1.98;;;20.70;49.40;;;;;;5053433;28;20045;-58
2021/05/31 04:05:13;;;;;;;2.60;2.00;;;20.70;49.40;;;;;;5037874;28;20041;-57
2021/05/31 04:13:14;;;;;;;2.13;1.92;;;20.80;49.40;;;;;;5036968;28;20049;-57
2021/05/31 04:15:42;;;;;;;2.97;2.10;;;20.80;49.30;;;;;;5037080;28;20119;-58
2021/05/31 04:18:10;;;;;;;2.55;2.00;;;20.80;49.30;;;;;;5036158;28;20493;-58
2021/05/31 04:20:38;;;;;;;2.22;1.95;;;20.80;49.30;;;;;;5053755;28;20413;-58
2021/05/31 04:23:05;;;;;;;2.85;2.05;;;20.80;49.30;;;;;;5053623;28;20056;-58
2021/05/31 04:25:32;;;;;;;2.67;2.00;;;20.80;49.20;;;;;;5038699;28;20046;-55
2021/05/31 04:27:59;;;;;;;3.95;2.13;;;20.80;49.30;;;;;;5036930;28;20501;-55
2021/05/31 04:30:27;;;;;;;3.80;2.17;;;20.80;49.20;;;;;;5038360;28;20119;-58
2021/05/31 04:32:54;;;;;;;2.55;2.00;;;20.80;49.00;;;;;;5052640;28;20053;-57
2021/05/31 04:35:21;;;;;;;1.92;1.73;;;20.90;49.00;;;;;;5053605;28;20128;-58
2021/05/31 04:37:48;;;;;;;2.25;2.03;;;20.90;48.80;;;;;;5053224;28;20049;-59
2021/05/31 04:40:16;;;;;;;2.70;2.00;;;21.00;48.70;;;;;;5052520;28;20045;-57
2021/05/31 04:42:43;;;;;;;2.45;2.13;;;21.00;48.60;;;;;;5053402;28;20048;-57
2021/05/31 04:45:11;;;;;;;2.53;1.83;;;21.10;48.60;;;;;;5052438;28;20045;-56
2021/05/31 04:47:38;;;;;;;3.15;2.05;;;21.10;48.50;;;;;;5044099;28;20498;-58
2021/05/31 04:50:06;;;;;;;2.47;2.10;;;21.10;48.40;;;;;;5043852;28;20045;-59
2021/05/31 04:52:33;;;;;;;2.22;1.98;;;21.20;48.40;;;;;;5052424;28;20053;-57
2021/05/31 04:55:00;;;;;;;2.25;1.90;;;21.20;48.40;;;;;;5051827;28;20103;-58
2021/05/31 04:57:27;;;;;;;2.20;1.83;;;21.30;48.30;;;;;;5052061;28;20378;-58
2021/05/31 04:59:58;;;;;;;2.78;2.00;;;21.30;48.20;;;;;;5052987;28;20432;-58
2021/05/31 05:02:26;;;;;;;2.45;1.80;;;21.30;48.10;;;;;;5050316;28;20504;-58
2021/05/31 05:04:53;;;;;;;2.83;1.75;;;21.40;48.10;;;;;;5038625;28;20052;-56
2021/05/31 05:07:22;;;;;;;2.40;1.70;;;21.40;48.10;;;;;;5040390;28;20049;-58
2021/05/31 05:09:49;;;;;;;2.13;1.50;;;21.40;48.00;;;;;;5036341;28;20099;-57
2021/05/31 05:12:16;;;;;;;1.70;1.60;;;21.40;47.90;;;;;;5034426;28;20053;-58
2021/05/31 05:14:44;;;;;;;2.58;1.88;;;21.40;47.80;;;;;;5053006;28;20048;-58
2021/05/31 05:17:11;;;;;;;2.60;1.90;;;21.50;47.80;;;;;;5053816;28;20524;-58
2021/05/31 05:19:40;;;;;;;3.80;1.85;;;21.50;47.80;;;;;;5051736;28;20053;-58
2021/05/31 05:22:07;;;;;;;2.70;2.13;;;21.50;47.80;;;;;;5053994;28;20670;-56
2021/05/31 05:24:34;;;;;;;1.85;1.70;;;21.50;47.70;;;;;;5052360;28;20063;-58
2021/05/31 05:27:05;;;;;;;2.58;1.85;;;21.50;47.70;;;;;;5054718;28;20053;-59
2021/05/31 05:29:34;;;;;;;2.15;1.77;;;21.50;47.70;;;;;;5038857;28;20124;-57
2021/05/31 05:32:02;;;;;;;3.05;1.70;;;21.50;47.70;;;;;;5049898;28;20053;-58
2021/05/31 05:34:29;;;;;;;3.58;1.90;;;21.50;47.70;;;;;;5051388;28;20350;-57
2021/05/31 05:37:02;;;;;;;3.03;2.03;;;21.60;47.70;;;;;;5053652;28;20049;-58
2021/05/31 05:49:45;;;;;;;3.67;1.60;;;21.60;47.80;;;;;;5035831;28;20049;-58
2021/05/31 05:52:13;;;;;;;3.65;1.85;;;21.60;47.80;;;;;;5035524;28;20057;-57
2021/05/31 05:54:41;;;;;;;3.40;1.90;;;21.60;47.80;;;;;;5035280;28;20494;-58
2021/05/31 05:57:09;;;;;;;1.65;1.55;;;21.60;47.80;;;;;;5035733;28;20164;-58
2021/05/31 05:59:36;;;;;;;2.15;1.75;;;21.60;47.80;;;;;;5052726;28;20471;-58
2021/05/31 06:02:06;;;;;;;2.67;1.80;;;21.60;47.90;;;;;;5060549;28;20041;-58
2021/05/31 06:04:34;;;;;;;3.20;1.90;;;21.60;48.50;;;;;;5045990;28;20132;-57
2021/05/31 06:07:02;;;;;;;2.47;1.92;;;21.60;47.90;;;;;;5041217;28;20135;-57
2021/05/31 06:09:30;;;;;;;2.08;1.80;;;21.60;47.90;;;;;;5047410;28;20512;-58
2021/05/31 06:11:57;;;;;;;1.85;1.73;;;21.60;47.90;;;;;;5040137;28;20063;-56
2021/05/31 06:14:24;;;;;;;2.10;1.70;;;21.60;48.00;;;;;;5052024;28;20049;-57
2021/05/31 06:16:51;;;;;;;1.85;1.60;;;21.60;48.00;;;;;;5050205;28;20056;-58
2021/05/31 06:19:18;;;;;;;3.60;2.10;;;21.60;48.10;;;;;;5037461;28;20115;-58
2021/05/31 06:21:46;;;;;;;2.72;2.00;;;21.60;48.10;;;;;;5051094;28;20045;-59
2021/05/31 06:24:15;;;;;;;2.28;1.98;;;21.60;48.20;;;;;;5035992;28;20045;-58
2021/05/31 06:26:42;;;;;;;2.35;1.70;;;21.60;48.20;;;;;;5052668;28;20040;-57
2021/05/31 06:29:09;;;;;;;1.98;1.70;;;21.60;48.20;;;;;;5051084;28;20049;-58
2021/05/31 06:31:37;;;;;;;1.88;1.67;;;21.60;48.30;;;;;;5050944;28;20135;-58
2021/05/31 06:34:04;;;;;;;2.20;1.83;;;21.60;48.30;;;;;;5051688;28;20124;-59
2021/05/31 06:36:34;;;;;;;2.30;2.10;;;21.60;48.30;;;;;;5034962;28;20045;-58
2021/05/31 06:39:02;;;;;;;2.30;1.80;;;21.60;48.40;;;;;;5050481;28;20051;-59
2021/05/31 06:41:29;;;;;;;2.08;1.85;;;21.60;48.40;;;;;;5052640;28;20094;-58
2021/05/31 06:43:57;;;;;;;2.80;2.00;;;21.60;48.40;;;;;;5050505;28;20053;-58
2021/05/31 06:46:24;;;;;;;2.50;1.65;;;21.60;48.40;;;;;;5052977;28;20056;-58
2021/05/31 06:48:51;;;;;;;2.47;1.90;;;21.60;48.50;;;;;;5051513;28;20141;-58
2021/05/31 06:51:18;;;;;;;2.17;1.88;;;21.60;48.50;;;;;;5051204;28;20494;-58
2021/05/31 06:53:45;;;;;;;2.35;1.88;;;21.60;48.50;;;;;;5065345;28;20095;-58
2021/05/31 06:56:13;;;;;;;2.20;2.00;;;21.60;48.60;;;;;;5051716;28;20052;-58
2021/05/31 06:58:40;;;;;;;2.30;1.58;;;21.60;48.60;;;;;;5042376;28;20041;-59
2021/05/31 07:01:09;;;;;;;2.75;2.03;;;21.60;48.60;;;;;;5044099;28;20049;-59
2021/05/31 07:03:37;;;;;;;1.90;1.70;;;21.60;48.60;;;;;;5051258;28;20049;-58
2021/05/31 07:06:06;;;;;;;2.50;1.83;;;21.60;48.60;;;;;;5051943;28;20044;-59
2021/05/31 07:08:33;;;;;;;2.95;1.63;;;21.60;48.60;;;;;;5054464;28;20083;-58
2021/05/31 07:11:08;;;;;;;2.60;1.95;;;21.60;48.60;;;;;;5050154;28;20098;-58
2021/05/31 07:13:36;;;;;;;2.00;1.80;;;21.60;48.60;;;;;;5053664;28;20489;-57
2021/05/31 07:16:03;;;;;;;1.90;1.75;;;21.60;48.60;;;;;;5043998;28;20048;-58
2021/05/31 07:18:30;;;;;;;2.40;1.70;;;21.60;48.60;;;;;;5055185;28;20044;-58
2021/05/31 07:21:00;;;;;;;2.45;1.85;;;21.60;48.60;;;;;;5056188;28;20041;-58
2021/05/31 07:23:28;;;;;;;1.90;1.70;;;21.60;48.70;;;;;;5056233;28;20045;-58
2021/05/31 07:25:55;;;;;;;1.67;1.48;;;21.60;48.70;;;;;;5054881;28;20049;-57
2021/05/31 07:28:23;;;;;;;2.08;1.85;;;21.60;48.60;;;;;;5053409;28;20098;-58
2021/05/31 07:30:51;;;;;;;2.40;1.75;;;21.60;48.70;;;;;;5055044;28;20098;-58
2021/05/31 07:33:18;;;;;;;2.10;1.85;;;21.60;48.70;;;;;;5055165;28;20057;-58
2021/05/31 07:35:45;;;;;;;2.63;1.98;;;21.70;48.70;;;;;;5054791;28;20416;-56
2021/05/31 07:38:12;;;;;;;2.67;1.83;;;21.70;48.70;;;;;;5055697;28;20041;-55
2021/05/31 07:40:40;;;;;;;4.85;2.17;;;21.70;48.60;;;;;;5054549;28;20094;-58
2021/05/31 07:43:07;;;;;;;3.30;2.05;;;21.70;48.60;;;;;;5038736;28;20132;-57
2021/05/31 07:45:35;;;;;;;4.70;2.03;;;21.70;48.60;;;;;;5051902;28;20053;-57
2021/05/31 07:48:05;;;;;;;1.67;1.40;;;21.70;48.50;;;;;;5054154;28;20099;-58
2021/05/31 07:50:32;;;;;;;2.42;1.70;;;21.80;48.60;;;;;;5054490;28;20049;-58
2021/05/31 07:52:59;;;;;;;5.25;1.70;;;21.80;48.60;;;;;;5052582;28;20114;-57
2021/05/31 07:55:27;;;;;;;2.17;1.80;;;21.80;48.50;;;;;;5043499;28;20049;-58
2021/05/31 07:57:54;;;;;;;3.17;2.10;;;21.80;48.50;;;;;;5048287;28;20045;-58
2021/05/31 08:00:23;;;;;;;1.98;1.73;;;21.80;48.50;;;;;;5043579;28;20448;-58
2021/05/31 08:02:51;;;;;;;2.25;1.70;;;21.80;48.50;;;;;;5037866;28;20048;-57
2021/05/31 08:05:21;;;;;;;1.90;1.70;;;21.80;48.50;;;;;;5037797;28;20045;-57
2021/05/31 08:07:48;;;;;;;2.30;1.70;;;21.80;48.50;;;;;;5052602;28;20106;-58
2021/05/31 08:10:17;;;;;;;3.28;1.95;;;21.80;48.50;;;;;;5054937;28;20091;-58
2021/05/31 08:12:50;;;;;;;1.67;1.58;;;21.80;48.60;;;;;;5054895;28;20045;-59
2021/05/31 08:15:17;;;;;;;2.05;1.83;;;21.90;48.60;;;;;;5054527;28;20052;-58
2021/05/31 08:17:44;;;;;;;2.05;1.85;;;21.90;48.60;;;;;;5053741;28;20041;-57
2021/05/31 08:20:13;;;;;;;2.72;1.90;;;21.90;48.60;;;;;;5053897;28;20037;-58
2021/05/31 08:22:45;;;;;;;2.15;1.70;;;21.90;48.60;;;;;;5052598;28;20050;-58
2021/05/31 08:25:18;;;;;;;2.08;1.67;;;21.90;48.60;;;;;;5053567;28;20041;-58
2021/05/31 08:27:45;;;;;;;2.60;1.60;;;21.90;48.60;;;;;;5053686;28;20396;-58
2021/05/31 08:30:14;;;;;;;3.83;1.70;;;21.90;48.60;;;;;;5053552;28;20041;-58
2021/05/31 08:32:41;;;;;;;2.75;1.80;;;21.90;48.60;;;;;;5052163;28;20049;-55
2021/05/31 08:35:09;;;;;;;2.47;1.70;;;21.90;48.60;;;;;;5037188;28;20044;-59
2021/05/31 08:37:36;;;;;;;3.38;1.80;;;21.90;48.60;;;;;;5036481;28;20127;-56
2021/05/31 08:40:05;;;;;;;2.97;1.80;;;21.90;48.60;;;;;;5033993;28;20049;-57
2021/05/31 08:42:40;;;;;;;2.58;1.70;;;21.90;48.60;;;;;;5052661;28;20049;-58
2021/05/31 08:45:10;;;;;;;2.83;1.90;;;21.90;48.70;;;;;;5052679;28;20653;-58
2021/05/31 08:47:44;;;;;;;4.50;1.90;;;21.90;48.70;;;;;;5035206;28;20064;-59
2021/05/31 08:50:15;;;;;;;4.82;2.00;;;21.90;48.70;;;;;;5035452;28;20445;-58
2021/05/31 08:52:43;;;;;;;3.47;1.67;;;21.90;48.70;;;;;;5067447;28;20107;-59
2021/05/31 08:55:12;;;;;;;2.50;1.70;;;21.90;48.70;;;;;;5037196;28;20041;-59
2021/05/31 08:57:39;;;;;;;2.45;1.67;;;21.90;48.70;;;;;;5035301;28;20041;-59
2021/05/31 09:00:10;;;;;;;4.60;2.03;;;21.90;48.80;;;;;;5036800;28;20509;-57
2021/05/31 09:02:38;;;;;;;3.05;1.85;;;21.90;48.80;;;;;;5052679;28;20501;-58
2021/05/31 09:05:07;;;;;;;2.65;1.75;;;21.90;48.80;;;;;;5038462;28;20053;-58
2021/05/31 09:07:35;;;;;;;2.53;1.85;;;21.90;48.80;;;;;;5049142;28;20052;-57
2021/05/31 09:10:06;;;;;;;2.88;1.85;;;21.90;48.80;;;;;;5053644;28;20087;-58
2021/05/31 09:12:38;;;;;;;2.17;1.67;;;21.90;48.80;;;;;;5057796;28;20056;-58
2021/05/31 09:15:07;;;;;;;4.13;1.98;;;21.90;48.80;;;;;;5049624;28;20451;-57
2021/05/31 09:17:36;;;;;;;1.80;1.55;;;21.90;48.80;;;;;;5064158;28;20053;-57
2021/05/31 09:20:05;;;;;;;2.95;2.03;;;21.90;48.80;;;;;;5059393;28;20080;-57
2021/05/31 09:22:44;;;;;;;2.05;1.67;;;21.90;48.80;;;;;;5044507;28;20505;-58
2021/05/31 09:25:33;;;;;;;2.22;1.70;;;21.90;48.80;;;;;;5047114;28;20064;-57
2021/05/31 09:28:10;;;;;;;2.10;1.52;;;21.90;48.80;;;;;;5051369;28;20465;-57
2021/05/31 09:30:41;;;;;;;2.60;1.90;;;21.90;48.80;;;;;;5052070;28;20394;-58
2021/05/31 09:33:16;;;;;;;2.28;1.55;;;21.90;48.80;;;;;;5040748;28;20099;-57
2021/05/31 09:35:44;;;;;;;3.00;1.80;;;21.90;48.80;;;;;;5049126;28;20529;-58
2021/05/31 09:38:15;;;;;;;2.33;1.60;;;21.90;48.80;;;;;;5040517;28;20115;-58
2021/05/31 09:40:54;;;;;;;1.88;1.63;;;21.90;48.80;;;;;;5036951;28;20106;-58
2021/05/31 09:43:25;;;;;;;2.33;1.88;;;21.90;48.80;;;;;;5037096;28;20052;-58
2021/05/31 09:45:52;;;;;;;2.78;1.80;;;21.90;48.80;;;;;;5047840;28;20455;-57
2021/05/31 09:48:31;;;;;;;2.47;1.70;;;21.90;48.70;;;;;;5052357;28;20048;-58
2021/05/31 09:51:01;;;;;;;2.60;1.70;;;22.00;48.80;;;;;;5040743;28;20058;-57
2021/05/31 09:53:35;;;;;;;2.47;1.83;;;22.00;48.70;;;;;;5046488;28;20068;-58
2021/05/31 09:56:14;;;;;;;2.08;1.67;;;22.00;48.70;;;;;;5051915;28;20065;-58
2021/05/31 09:58:56;;;;;;;2.00;1.67;;;22.00;48.60;;;;;;5053100;28;20056;-58
2021/05/31 10:01:37;;;;;;;2.38;1.60;;;22.00;48.60;;;;;;5052328;28;20049;-58
2021/05/31 10:09:52;;;;;;;1.80;1.25;;;22.00;48.60;;;;;;5007680;28;20104;-57
2021/05/31 10:12:19;;;;;;;1.90;1.70;;;22.00;48.50;;;;;;5007789;28;20052;-58
2021/05/31 10:14:47;;;;;;;2.80;1.73;;;22.00;48.40;;;;;;4990492;28;20062;-56
2021/05/31 10:17:15;;;;;;;3.00;1.45;;;22.00;48.40;;;;;;4990659;28;20046;-58
2021/05/31 10:19:44;;;;;;;2.35;1.60;;;22.00;48.40;;;;;;4991434;28;20042;-58
2021/05/31 10:22:12;;;;;;;1.75;1.65;;;22.00;48.40;;;;;;4987897;28;20446;-57
2021/05/31 10:24:40;;;;;;;1.75;1.55;;;22.00;48.40;;;;;;4990513;28;20050;-57
2021/05/31 10:27:11;;;;;;;1.88;1.67;;;22.10;48.50;;;;;;4991240;28;20054;-57
2021/05/31 10:29:42;;;;;;;2.15;1.65;;;22.10;48.40;;;;;;4991427;28;20129;-56
2021/05/31 10:32:10;;;;;;;1.90;1.50;;;22.10;48.50;;;;;;4990252;28;20050;-57
2021/05/31 10:34:52;;;;;;;2.17;1.70;;;22.10;48.40;;;;;;4990241;28;20050;-58
2021/05/31 10:37:30;;;;;;;2.08;1.20;;;22.10;48.40;;;;;;4990265;28;20100;-58
2021/05/31 10:40:05;;;;;;;2.38;1.30;;;22.10;48.40;;;;;;4992212;28;20057;-58
2021/05/31 10:42:45;;;;;;;2.08;1.50;;;22.10;48.40;;;;;;5053167;28;20048;-57
2021/05/31 10:45:24;;;;;;;2.10;1.80;;;22.10;48.40;;;;;;5040803;28;20049;-58
2021/05/31 10:48:09;;;;;;;2.40;1.60;;;22.10;48.30;;;;;;5055543;28;20056;-59
2021/05/31 10:50:58;;;;;;;1.83;1.50;;;22.10;48.30;;;;;;5054435;28;20045;-58
2021/05/31 10:53:32;;;;;;;2.03;1.50;;;22.10;48.30;;;;;;5055286;28;20057;-57
2021/05/31 10:56:09;;;;;;;1.65;1.40;;;22.10;48.30;;;;;;5073029;28;20060;-58
2021/05/31 10:58:38;;;;;;;1.98;1.30;;;22.10;48.30;;;;;;5054136;28;20045;-57
2021/05/31 11:01:10;;;;;;;1.33;1.23;;;22.10;48.30;;;;;;5055384;28;20041;-57
2021/05/31 11:04:00;;;;;;;1.35;1.25;;;22.10;48.30;;;;;;5054511;28;20519;-58
2021/05/31 11:06:49;;;;;;;2.10;1.58;;;22.10;48.30;;;;;;5043013;28;20067;-59
2021/05/31 11:09:23;;;;;;;1.77;1.35;;;22.10;48.30;;;;;;5052468;28;20052;-58
2021/05/31 11:11:54;;;;;;;1.42;1.33;;;22.10;48.30;;;;;;5038951;28;20404;-58
2021/05/31 11:14:33;;;;;;;2.35;1.95;;;22.10;48.20;;;;;;5039987;28;20516;-58
2021/05/31 11:17:12;;;;;;;1.95;1.63;;;22.10;48.20;;;;;;5038756;28;20045;-57
2021/05/31 11:19:45;;;;;;;2.55;1.77;;;22.10;48.20;;;;;;5038717;28;20102;-58
2021/05/31 11:22:18;;;;;;;2.08;1.65;;;22.10;48.20;;;;;;5041192;28;20040;-58
2021/05/31 11:25:06;;;;;;;1.77;1.50;;;22.10;48.20;;;;;;5054793;28;20107;-58
2021/05/31 11:27:39;;;;;;;2.95;1.75;;;22.10;48.10;;;;;;5055008;28;20044;-58
2021/05/31 11:30:11;;;;;;;1.63;1.35;;;22.20;48.20;;;;;;5052455;28;20103;-57
2021/05/31 11:32:39;;;;;;;1.65;1.17;;;22.20;48.10;;;;;;5054512;28;20496;-57
2021/05/31 11:35:11;;;;;;;2.20;1.42;;;22.20;48.10;;;;;;5055833;28;20098;-58
2021/05/31 11:37:59;;;;;;;1.73;1.10;;;22.20;48.00;;;;;;5054549;28;20053;-58
2021/05/31 11:40:40;;;;;;;1.70;1.33;;;22.20;48.00;;;;;;5054252;28;20041;-55
2021/05/31 11:43:12;;;;;;;2.17;1.30;;;22.20;48.00;;;;;;5053568;28;20060;-57
2021/05/31 11:45:46;;;;;;;2.58;1.25;;;22.10;47.90;;;;;;5053150;28;20049;-58
2021/05/31 11:48:18;;;;;;;1.45;1.30;;;22.10;47.90;;;;;;5054419;28;20080;-58
2021/05/31 11:50:47;;;;;;;2.25;1.45;;;22.10;47.90;;;;;;5055586;28;20052;-57
2021/05/31 11:53:17;;;;;;;1.50;1.20;;;22.20;48.00;;;;;;5053246;28;20115;-58
2021/05/31 11:55:45;;;;;;;2.38;1.77;;;22.10;47.90;;;;;;5054332;28;20051;-58
2021/05/31 11:58:13;;;;;;;2.17;1.52;;;22.10;47.90;;;;;;5050539;28;20040;-57
2021/05/31 12:00:43;;;;;;;2.15;1.50;;;22.20;48.00;;;;;;5040824;28;20092;-58
2021/05/31 12:03:23;;;;;;;2.30;1.55;;;22.20;47.90;;;;;;5055127;28;20037;-58
2021/05/31 12:05:54;;;;;;;1.83;1.50;;;22.20;47.90;;;;;;5054762;28;20460;-58
2021/05/31 12:08:23;;;;;;;1.88;1.48;;;22.20;47.80;;;;;;5052364;28;20110;-58
2021/05/31 12:10:50;;;;;;;1.50;1.40;;;22.20;47.70;;;;;;5037633;28;20052;-57
2021/05/31 12:13:27;;;;;;;2.70;1.30;;;22.30;47.70;;;;;;5038576;28;20049;-58
2021/05/31 12:15:54;;;;;;;3.22;1.30;;;22.30;47.60;;;;;;5039020;28;20036;-58
2021/05/31 12:18:22;;;;;;;1.42;1.10;;;22.30;47.50;;;;;;5054913;28;20092;-59
2021/05/31 12:20:58;;;;;;;1.73;1.40;;;22.30;47.40;;;;;;5054724;28;20048;-58
2021/05/31 12:23:25;;;;;;;1.67;1.33;;;22.30;47.40;;;;;;5035468;28;20099;-57
2021/05/31 12:25:53;;;;;;;1.88;1.42;;;22.30;47.40;;;;;;5051594;28;20099;-58
2021/05/31 12:28:21;;;;;;;1.13;1.02;;;22.30;47.40;;;;;;5069472;28;20048;-58
2021/05/31 12:30:50;;;;;;;1.70;1.48;;;22.30;47.40;;;;;;5036033;28;20050;-58
2021/05/31 12:33:18;;;;;;;1.60;1.35;;;22.30;47.40;;;;;;5053999;28;20076;-58
2021/05/31 12:35:47;;;;;;;1.50;1.30;;;22.30;47.40;;;;;;5053283;28;20045;-58
2021/05/31 12:38:18;;;;;;;2.75;1.33;;;22.30;47.40;;;;;;5052638;28;20076;-59
2021/05/31 12:40:49;;;;;;;1.42;1.20;;;22.40;47.50;;;;;;5052523;28;20409;-57
2021/05/31 12:43:17;;;;;;;2.95;1.50;;;22.40;47.40;;;;;;5053601;28;20098;-58
2021/05/31 12:45:47;;;;;;;1.50;1.25;;;22.40;47.30;;;;;;5054145;28;20052;-58
2021/05/31 12:48:20;;;;;;;1.63;1.15;;;22.40;47.10;;;;;;5053435;28;20193;-58
2021/05/31 12:50:50;;;;;;;2.95;1.55;;;22.50;47.00;;;;;;5054265;28;20058;-58
2021/05/31 12:53:18;;;;;;;1.30;1.20;;;22.50;46.90;;;;;;5048634;28;20505;-59
2021/05/31 12:55:45;;;;;;;2.00;1.20;;;22.50;46.80;;;;;;5040156;28;20053;-59
2021/05/31 12:58:18;;;;;;;1.70;1.23;;;22.60;46.80;;;;;;5037489;28;20050;-58
2021/05/31 13:00:47;;;;;;;1.77;1.15;;;22.60;46.70;;;;;;5036583;28;20496;-58
2021/05/31 13:03:17;;;;;;;2.28;1.15;;;22.60;46.60;;;;;;5047210;28;20060;-58
2021/05/31 13:05:49;;;;;;;1.27;1.17;;;22.60;46.50;;;;;;5049274;28;20099;-58
2021/05/31 13:08:17;;;;;;;1.40;1.30;;;22.60;46.50;;;;;;5037386;28;20053;-58
2021/05/31 13:10:48;;;;;;;2.22;1.20;;;22.60;46.50;;;;;;5036305;28;20053;-59
2021/05/31 13:13:20;;;;;;;1.83;1.48;;;22.60;46.50;;;;;;5037462;28;20050;-58
2021/05/31 13:15:53;;;;;;;1.50;1.15;;;22.60;46.50;;;;;;5037237;28;20056;-58
2021/05/31 13:18:32;;;;;;;1.52;1.30;;;22.60;46.50;;;;;;5044322;28;20051;-58
2021/05/31 13:21:13;;;;;;;1.70;1.35;;;22.60;46.50;;;;;;5053662;28;20037;-58
2021/05/31 13:23:41;;;;;;;1.65;1.30;;;22.60;46.50;;;;;;5053690;28;20044;-58
2021/05/31 13:26:15;;;;;;;1.20;1.00;;;22.60;46.50;;;;;;5053767;28;20052;-59